Time;durP1;ratioP1;P1;durP2;ratioP2;P2;SDS_P1;SDS_P2;PMS_P1;PMS_P2;Temp;Humidity;BMP_temperature;BMP_pressure;BME280_temperature;BME280_humidity;BME280_pressure;Samples;Min_cycle;Max_cycle;Signal;HPM_P1;HPM_P2
2022/11/13 00:00:18;;;;;;;115.10;52.40;;;3.60;99.90;;;;;;5073594;28;20097;-29
2022/11/13 00:02:43;;;;;;;106.63;50.58;;;3.30;99.90;;;;;;5073523;28;20054;-29
2022/11/13 00:05:09;;;;;;;125.03;55.10;;;3.30;99.90;;;;;;5072842;28;20067;-29
2022/11/13 00:07:35;;;;;;;133.77;59.25;;;3.60;99.90;;;;;;5073472;28;20071;-28
2022/11/13 00:10:00;;;;;;;151.88;62.60;;;3.40;99.90;;;;;;5072253;28;20405;-29
2022/11/13 00:12:28;;;;;;;122.65;55.40;;;3.50;99.90;;;;;;5073784;28;20495;-29
2022/11/13 00:14:53;;;;;;;117.30;53.00;;;3.60;99.90;;;;;;5073464;28;20113;-28
2022/11/13 00:17:19;;;;;;;107.57;51.67;;;3.40;99.90;;;;;;5073489;28;20502;-29
2022/11/13 00:19:45;;;;;;;112.13;52.97;;;3.30;99.90;;;;;;5072957;28;20110;-29
2022/11/13 00:22:11;;;;;;;125.32;57.42;;;3.40;99.90;;;;;;5073929;28;20058;-29
2022/11/13 00:24:37;;;;;;;109.57;54.30;;;3.70;99.90;;;;;;5073382;28;20106;-28
2022/11/13 00:27:03;;;;;;;124.45;58.40;;;3.90;99.90;;;;;;5073322;28;20437;-29
2022/11/13 00:29:28;;;;;;;125.47;60.97;;;4.00;99.90;;;;;;5074568;28;20044;-29
2022/11/13 00:31:54;;;;;;;120.43;59.78;;;4.30;99.90;;;;;;5077217;28;20107;-29
2022/11/13 00:34:20;;;;;;;129.48;62.88;;;4.50;99.90;;;;;;5077478;28;20097;-29
2022/11/13 00:36:45;;;;;;;122.63;61.55;;;4.50;99.90;;;;;;5076716;28;20486;-29
2022/11/13 00:39:11;;;;;;;121.65;64.90;;;4.80;99.90;;;;;;5077101;28;20137;-28
2022/11/13 00:41:37;;;;;;;148.60;71.85;;;4.70;99.90;;;;;;5077583;28;20119;-28
2022/11/13 00:44:02;;;;;;;154.48;74.50;;;4.90;99.90;;;;;;5077507;28;20041;-28
2022/11/13 00:46:29;;;;;;;140.82;66.88;;;4.70;99.90;;;;;;5077012;28;20045;-28
2022/11/13 00:48:54;;;;;;;137.68;68.50;;;4.80;99.90;;;;;;5077724;28;20051;-28
2022/11/13 00:51:21;;;;;;;131.10;65.63;;;5.00;99.90;;;;;;5075654;28;20371;-28
2022/11/13 00:53:46;;;;;;;109.82;59.22;;;5.10;99.90;;;;;;5077603;28;20109;-31
2022/11/13 00:56:12;;;;;;;129.20;66.93;;;4.90;99.90;;;;;;5076919;28;20466;-30
2022/11/13 00:58:38;;;;;;;113.57;59.97;;;5.20;99.90;;;;;;5076781;28;20102;-28
2022/11/13 01:01:07;;;;;;;110.18;61.47;;;5.30;99.90;;;;;;5077212;28;20106;-30
2022/11/13 01:03:33;;;;;;;109.90;60.72;;;5.20;99.90;;;;;;5076626;28;20066;-29
2022/11/13 01:05:58;;;;;;;125.03;63.63;;;5.20;99.90;;;;;;5076540;28;20443;-29
2022/11/13 01:08:24;;;;;;;94.93;55.42;;;5.30;99.90;;;;;;5076761;28;20084;-28
2022/11/13 01:10:51;;;;;;;101.80;56.78;;;5.60;99.90;;;;;;5076166;28;20405;-29
2022/11/13 01:13:16;;;;;;;110.30;60.47;;;5.50;99.90;;;;;;5076409;28;20049;-30
2022/11/13 01:15:44;;;;;;;108.38;58.58;;;5.50;99.90;;;;;;5076321;28;20041;-29
2022/11/13 01:18:11;;;;;;;104.00;60.90;;;5.80;99.90;;;;;;5077548;28;20459;-29
2022/11/13 01:20:37;;;;;;;124.00;65.18;;;5.80;99.90;;;;;;5075071;28;20449;-29
2022/11/13 01:23:03;;;;;;;109.32;60.15;;;5.90;99.90;;;;;;5075267;28;20052;-29
2022/11/13 01:25:29;;;;;;;121.22;66.63;;;6.00;99.90;;;;;;5076219;28;20048;-29
2022/11/13 01:27:55;;;;;;;98.47;55.72;;;5.70;99.90;;;;;;5076181;28;20371;-29
2022/11/13 01:30:21;;;;;;;98.95;55.80;;;5.90;99.90;;;;;;5074952;28;20091;-29
2022/11/13 01:32:47;;;;;;;87.57;52.28;;;6.00;99.90;;;;;;5076662;28;20052;-29
2022/11/13 01:35:12;;;;;;;109.07;57.00;;;5.90;99.90;;;;;;5075991;28;20394;-30
2022/11/13 01:37:38;;;;;;;91.80;51.50;;;5.80;99.90;;;;;;5076579;28;20517;-28
2022/11/13 01:40:04;;;;;;;88.93;52.10;;;5.90;99.90;;;;;;5075749;28;20049;-29
2022/11/13 01:42:32;;;;;;;96.40;55.20;;;6.00;99.90;;;;;;5075106;28;20080;-29
2022/11/13 01:45:01;;;;;;;94.38;52.80;;;5.90;99.90;;;;;;5076437;28;20101;-29
2022/11/13 01:47:28;;;;;;;101.82;55.17;;;5.90;99.90;;;;;;5075820;28;20045;-28
2022/11/13 01:49:57;;;;;;;107.50;51.85;;;6.00;99.90;;;;;;5058962;28;20052;-28
2022/11/13 01:52:34;;;;;;;88.60;48.65;;;6.00;99.90;;;;;;5075735;28;20554;-29
2022/11/13 01:55:16;;;;;;;84.55;48.13;;;6.10;99.90;;;;;;5075731;28;20049;-29
2022/11/13 01:57:41;;;;;;;107.90;55.25;;;6.30;99.90;;;;;;5076508;28;20048;-29
2022/11/13 02:00:10;;;;;;;82.20;47.90;;;6.20;99.90;;;;;;5074890;28;20382;-29
2022/11/13 02:02:36;;;;;;;90.68;50.50;;;5.70;99.90;;;;;;5075572;28;20178;-29
2022/11/13 02:05:03;;;;;;;76.90;46.28;;;6.00;99.90;;;;;;5075511;28;20053;-29
2022/11/13 02:07:28;;;;;;;87.30;50.60;;;5.80;99.90;;;;;;5076285;28;20145;-29
2022/11/13 02:09:57;;;;;;;74.38;45.80;;;6.00;99.90;;;;;;5075589;28;20077;-30
2022/11/13 02:12:39;;;;;;;71.95;42.40;;;5.90;99.90;;;;;;5076140;28;20048;-29
2022/11/13 02:15:06;;;;;;;99.13;53.80;;;5.70;99.90;;;;;;5075199;28;20051;-29
2022/11/13 02:17:37;;;;;;;81.60;45.67;;;6.00;99.90;;;;;;5056856;28;20060;-29
2022/11/13 02:20:05;;;;;;;98.85;51.38;;;5.90;99.90;;;;;;5075504;28;20111;-29
2022/11/13 02:22:43;;;;;;;104.95;53.20;;;5.70;99.90;;;;;;5075392;28;20093;-29
2022/11/13 02:25:10;;;;;;;107.25;53.22;;;5.80;99.90;;;;;;5073904;28;20091;-28
2022/11/13 02:27:43;;;;;;;118.78;62.60;;;5.60;99.90;;;;;;5075044;28;20512;-30
2022/11/13 02:30:22;;;;;;;165.65;74.13;;;5.70;99.90;;;;;;5075044;28;20553;-29
2022/11/13 02:32:50;;;;;;;130.48;69.60;;;5.60;99.90;;;;;;5075581;28;20382;-29
2022/11/13 02:35:35;;;;;;;109.15;61.05;;;5.70;99.90;;;;;;5074791;28;20060;-29
2022/11/13 02:38:03;;;;;;;158.23;73.93;;;6.10;99.90;;;;;;5074831;28;20049;-29
2022/11/13 02:40:30;;;;;;;137.15;68.10;;;6.00;99.90;;;;;;5074316;28;20383;-28
2022/11/13 02:42:56;;;;;;;134.50;64.20;;;5.60;99.90;;;;;;5074709;28;20044;-29
2022/11/13 02:45:21;;;;;;;105.50;56.67;;;5.50;99.90;;;;;;5074643;28;20049;-29
2022/11/13 02:47:47;;;;;;;94.93;52.70;;;5.40;99.90;;;;;;5074662;28;20044;-29
2022/11/13 02:50:13;;;;;;;85.43;48.97;;;5.30;99.90;;;;;;5074570;28;20395;-29
2022/11/13 02:52:38;;;;;;;110.68;57.53;;;5.60;99.90;;;;;;5074314;28;20080;-29
2022/11/13 02:55:05;;;;;;;98.43;52.70;;;5.60;99.90;;;;;;5074379;28;20106;-28
2022/11/13 02:57:31;;;;;;;114.90;56.83;;;5.60;99.90;;;;;;5074411;28;20055;-29
2022/11/13 02:59:56;;;;;;;94.05;49.83;;;5.40;99.90;;;;;;5073298;28;20052;-29
2022/11/13 03:02:22;;;;;;;94.95;51.72;;;5.70;99.90;;;;;;5074393;28;20084;-29
2022/11/13 03:04:48;;;;;;;86.72;49.38;;;5.60;99.90;;;;;;5074329;28;20067;-29
2022/11/13 03:07:14;;;;;;;84.75;48.75;;;5.60;99.90;;;;;;5074270;28;20043;-29
2022/11/13 03:09:40;;;;;;;87.55;47.42;;;5.40;99.90;;;;;;5074778;28;20106;-29
2022/11/13 03:12:09;;;;;;;96.38;50.95;;;5.60;99.90;;;;;;5074183;28;20042;-29
2022/11/13 03:14:35;;;;;;;91.20;50.05;;;5.70;99.90;;;;;;5074158;28;20036;-29
2022/11/13 03:17:00;;;;;;;83.05;47.55;;;5.50;99.90;;;;;;5074172;28;20159;-29
2022/11/13 03:19:27;;;;;;;68.25;44.33;;;5.50;99.90;;;;;;5073451;28;20091;-29
2022/11/13 03:21:53;;;;;;;70.97;42.90;;;5.50;99.90;;;;;;5074034;28;20044;-29
2022/11/13 03:24:18;;;;;;;72.50;43.85;;;5.80;99.90;;;;;;5073984;28;20052;-30
2022/11/13 03:26:44;;;;;;;81.55;46.40;;;5.50;99.90;;;;;;5073966;28;20044;-29
2022/11/13 03:29:10;;;;;;;77.65;45.28;;;5.40;99.90;;;;;;5072979;28;20044;-29
2022/11/13 03:31:36;;;;;;;73.43;44.65;;;5.80;99.90;;;;;;5073936;28;20051;-30
2022/11/13 03:34:01;;;;;;;68.60;42.78;;;5.60;99.90;;;;;;5074682;28;20387;-29
2022/11/13 03:36:27;;;;;;;69.63;42.90;;;5.70;99.90;;;;;;5074048;28;20048;-29
2022/11/13 03:38:53;;;;;;;74.00;45.13;;;5.90;99.90;;;;;;5073803;28;20045;-29
2022/11/13 03:41:20;;;;;;;63.65;39.50;;;5.90;99.90;;;;;;5073079;28;20036;-28
2022/11/13 03:43:45;;;;;;;68.55;41.58;;;5.70;99.90;;;;;;5073748;28;20056;-29
2022/11/13 03:46:11;;;;;;;69.35;40.40;;;5.70;99.90;;;;;;5074527;28;20383;-29
2022/11/13 03:48:37;;;;;;;65.40;41.78;;;5.80;99.90;;;;;;5073131;28;20364;-30
2022/11/13 03:51:03;;;;;;;58.90;39.03;;;5.70;99.90;;;;;;5072490;28;20049;-29
2022/11/13 03:53:28;;;;;;;58.80;39.20;;;5.90;99.90;;;;;;5073023;28;20040;-29
2022/11/13 03:55:54;;;;;;;60.90;40.78;;;6.00;99.90;;;;;;5073594;28;20428;-29
2022/11/13 03:58:20;;;;;;;64.95;41.08;;;5.80;99.90;;;;;;5073634;28;20044;-29
2022/11/13 04:00:46;;;;;;;63.72;40.00;;;5.90;99.90;;;;;;5074138;28;20055;-28
2022/11/13 04:03:12;;;;;;;59.88;40.13;;;5.70;99.90;;;;;;5073729;28;20087;-29
2022/11/13 04:05:38;;;;;;;61.05;38.72;;;5.70;99.90;;;;;;5080553;28;20072;-29
2022/11/13 04:08:04;;;;;;;63.60;38.83;;;6.10;99.90;;;;;;5080058;28;20416;-29
2022/11/13 04:10:30;;;;;;;60.90;39.08;;;5.80;99.90;;;;;;5080164;28;20522;-29
2022/11/13 04:12:55;;;;;;;60.35;37.75;;;5.90;99.90;;;;;;5080175;28;20086;-30
2022/11/13 04:15:21;;;;;;;62.33;39.35;;;5.80;99.90;;;;;;5080598;28;20393;-29
2022/11/13 04:17:48;;;;;;;70.88;40.70;;;5.70;99.90;;;;;;5080088;28;20131;-28
2022/11/13 04:20:15;;;;;;;65.32;38.15;;;5.80;99.90;;;;;;5080389;28;20044;-29
2022/11/13 04:22:40;;;;;;;70.28;39.95;;;6.00;99.90;;;;;;5079100;28;20100;-29
2022/11/13 04:25:06;;;;;;;63.83;38.78;;;6.00;99.90;;;;;;5081407;28;20048;-29
2022/11/13 04:27:32;;;;;;;63.08;38.20;;;5.90;99.90;;;;;;5079985;28;20043;-29
2022/11/13 04:29:58;;;;;;;54.75;37.28;;;5.70;99.90;;;;;;5079957;28;20048;-29
2022/11/13 04:32:23;;;;;;;52.45;34.90;;;5.70;99.90;;;;;;5062364;28;20040;-29
2022/11/13 04:34:49;;;;;;;58.17;36.75;;;5.80;99.90;;;;;;5080743;28;20087;-29
2022/11/13 04:37:15;;;;;;;57.15;35.70;;;5.70;99.90;;;;;;5079850;28;20040;-29
2022/11/13 04:39:40;;;;;;;56.25;35.42;;;5.70;99.90;;;;;;5079879;28;20084;-29
2022/11/13 04:44:51;;;;;;;51.72;34.92;;;5.70;99.90;;;;;;5079188;28;20114;-30
2022/11/13 04:47:17;;;;;;;51.92;34.08;;;6.00;99.90;;;;;;5080355;28;20045;-29
2022/11/13 04:49:43;;;;;;;56.83;34.33;;;6.00;99.90;;;;;;5079487;28;20044;-29
2022/11/13 04:52:08;;;;;;;52.53;36.17;;;5.80;99.90;;;;;;5079810;28;20047;-29
2022/11/13 04:54:34;;;;;;;52.85;34.70;;;6.10;99.90;;;;;;5079745;28;20194;-30
2022/11/13 04:57:00;;;;;;;51.22;35.15;;;5.80;99.90;;;;;;5078157;28;20041;-30
2022/11/13 04:59:25;;;;;;;49.50;32.90;;;5.90;99.90;;;;;;5079678;28;20131;-29
2022/11/13 05:01:51;;;;;;;46.28;32.05;;;5.80;99.90;;;;;;5079675;28;20074;-29
2022/11/13 05:04:17;;;;;;;52.60;33.70;;;6.00;99.90;;;;;;5078748;28;20052;-29
2022/11/13 05:06:42;;;;;;;47.00;32.78;;;5.90;99.90;;;;;;5079642;28;20052;-29
2022/11/13 05:09:10;;;;;;;52.03;32.80;;;6.10;99.90;;;;;;5078476;28;20050;-29
2022/11/13 05:11:35;;;;;;;48.13;32.38;;;5.80;99.90;;;;;;5079549;28;20048;-30
2022/11/13 05:14:02;;;;;;;50.97;31.70;;;5.80;99.90;;;;;;5079443;28;20600;-29
2022/11/13 05:16:28;;;;;;;47.72;30.85;;;6.00;99.90;;;;;;5076900;28;20080;-29
2022/11/13 05:18:56;;;;;;;52.22;33.50;;;5.70;99.90;;;;;;5076400;28;20094;-30
2022/11/13 05:21:21;;;;;;;44.38;31.05;;;5.70;99.90;;;;;;5076280;28;20537;-30
2022/11/13 05:23:47;;;;;;;46.97;31.83;;;5.70;99.90;;;;;;5076282;28;20080;-29
2022/11/13 05:26:13;;;;;;;49.70;31.80;;;5.70;99.90;;;;;;5076128;28;20040;-30
2022/11/13 05:28:39;;;;;;;48.85;33.05;;;5.80;99.90;;;;;;5076239;28;20106;-29
2022/11/13 05:31:09;;;;;;;42.50;29.40;;;5.60;99.90;;;;;;5076945;28;20048;-29
2022/11/13 05:33:35;;;;;;;53.95;31.77;;;5.80;99.90;;;;;;5076017;28;20041;-29
2022/11/13 05:36:03;;;;;;;40.92;28.33;;;5.60;99.90;;;;;;5076463;28;20048;-29
2022/11/13 05:38:29;;;;;;;44.83;31.15;;;5.70;99.90;;;;;;5075962;28;20482;-29
2022/11/13 05:41:09;;;;;;;48.63;31.17;;;5.60;99.90;;;;;;5075916;28;20051;-30
2022/11/13 05:43:37;;;;;;;50.70;31.88;;;5.70;99.90;;;;;;5076215;28;20407;-30
2022/11/13 05:46:10;;;;;;;49.25;31.65;;;5.50;99.90;;;;;;5075824;28;20055;-29
2022/11/13 05:48:36;;;;;;;45.35;30.35;;;5.70;99.90;;;;;;5076426;28;20040;-29
2022/11/13 05:51:07;;;;;;;38.53;28.55;;;5.50;99.90;;;;;;5076090;28;20131;-29
2022/11/13 05:53:34;;;;;;;47.10;30.60;;;5.80;99.90;;;;;;5076586;28;20048;-30
2022/11/13 05:56:06;;;;;;;41.47;28.63;;;5.40;99.90;;;;;;5075636;28;20048;-29
2022/11/13 05:58:32;;;;;;;45.47;28.38;;;5.50;99.90;;;;;;5075692;28;20055;-29
2022/11/13 06:01:16;;;;;;;40.08;27.13;;;5.50;99.90;;;;;;5075951;28;20037;-29
2022/11/13 06:03:43;;;;;;;42.53;28.27;;;5.60;99.90;;;;;;5076091;28;20059;-30
2022/11/13 06:06:12;;;;;;;42.33;27.80;;;5.30;99.90;;;;;;5075781;28;20040;-29
2022/11/13 06:08:38;;;;;;;45.60;29.67;;;5.50;99.90;;;;;;5075429;28;20474;-29
2022/11/13 06:11:10;;;;;;;43.90;28.45;;;5.30;99.90;;;;;;5074949;28;20498;-29
2022/11/13 06:13:36;;;;;;;40.78;29.13;;;5.70;99.90;;;;;;5075635;28;20045;-29
2022/11/13 06:16:05;;;;;;;43.38;28.02;;;5.30;99.90;;;;;;5075132;28;20051;-29
2022/11/13 06:18:31;;;;;;;46.17;28.63;;;5.20;99.90;;;;;;5073792;28;20055;-29
2022/11/13 06:21:02;;;;;;;43.80;28.35;;;5.50;99.90;;;;;;5075142;28;20044;-29
2022/11/13 06:23:28;;;;;;;48.47;29.38;;;5.30;99.90;;;;;;5075098;28;20127;-29
2022/11/13 06:26:03;;;;;;;44.28;29.30;;;5.30;99.90;;;;;;5075311;28;20128;-29
2022/11/13 06:28:29;;;;;;;51.97;32.78;;;5.10;99.90;;;;;;5074568;28;20490;-29
2022/11/13 06:30:55;;;;;;;49.70;29.75;;;4.60;99.90;;;;;;5074940;28;20051;-30
2022/11/13 06:33:20;;;;;;;49.72;31.23;;;5.00;99.90;;;;;;5074959;28;20040;-29
2022/11/13 06:35:46;;;;;;;45.88;28.52;;;5.00;99.90;;;;;;5074769;28;20123;-30
2022/11/13 06:38:12;;;;;;;55.92;31.88;;;4.50;99.90;;;;;;5074828;28;20102;-29
2022/11/13 06:40:38;;;;;;;50.40;31.33;;;4.80;99.90;;;;;;5057972;28;20136;-28
2022/11/13 06:43:04;;;;;;;58.08;32.05;;;4.60;99.90;;;;;;5074730;28;20441;-29
2022/11/13 06:45:30;;;;;;;54.33;31.58;;;4.70;99.90;;;;;;5074675;28;20049;-29
2022/11/13 06:47:55;;;;;;;53.90;31.50;;;4.70;99.90;;;;;;5075185;28;20080;-29
2022/11/13 06:50:21;;;;;;;48.65;30.35;;;4.50;99.90;;;;;;5074488;28;20106;-29
2022/11/13 06:52:47;;;;;;;52.50;31.25;;;4.30;99.90;;;;;;5073255;28;20105;-29
2022/11/13 06:55:12;;;;;;;49.47;31.17;;;4.40;99.90;;;;;;5075199;28;20044;-29
2022/11/13 06:57:38;;;;;;;54.78;32.30;;;4.20;99.90;;;;;;5074361;28;20466;-31
2022/11/13 07:00:05;;;;;;;53.20;33.35;;;4.00;99.90;;;;;;5074956;28;20041;-28
2022/11/13 07:02:30;;;;;;;59.85;33.30;;;4.30;99.90;;;;;;5074402;28;20069;-29
2022/11/13 07:04:56;;;;;;;53.63;32.50;;;4.00;99.90;;;;;;5074291;28;20386;-30
2022/11/13 07:07:22;;;;;;;49.85;31.45;;;4.50;99.90;;;;;;5073899;28;20080;-29
2022/11/13 07:09:47;;;;;;;54.15;32.08;;;4.30;99.90;;;;;;5074570;28;20051;-29
2022/11/13 07:12:13;;;;;;;61.15;34.70;;;4.50;99.90;;;;;;5073128;28;20131;-29
2022/11/13 07:14:38;;;;;;;60.65;34.90;;;4.20;99.90;;;;;;5074673;28;20087;-29
2022/11/13 07:17:04;;;;;;;50.58;32.75;;;4.50;99.90;;;;;;5074293;28;20444;-29
2022/11/13 07:19:30;;;;;;;52.53;32.63;;;4.60;99.90;;;;;;5072557;28;20143;-29
2022/11/13 07:21:56;;;;;;;48.00;30.75;;;4.80;99.90;;;;;;5073947;28;20044;-29
2022/11/13 07:24:21;;;;;;;52.58;31.58;;;4.60;99.90;;;;;;5073649;28;20078;-28
2022/11/13 07:26:47;;;;;;;48.13;31.83;;;4.80;99.90;;;;;;5073984;28;20040;-29
2022/11/13 07:29:12;;;;;;;51.67;32.00;;;4.60;99.90;;;;;;5072719;28;20427;-28
2022/11/13 07:31:38;;;;;;;46.72;31.17;;;4.70;99.90;;;;;;5073587;28;20552;-28
2022/11/13 07:34:04;;;;;;;45.80;29.90;;;5.00;99.90;;;;;;5074039;28;20101;-28
2022/11/13 07:36:29;;;;;;;47.67;30.98;;;5.00;99.90;;;;;;5073420;28;20390;-29
2022/11/13 07:38:55;;;;;;;46.65;30.65;;;5.20;99.90;;;;;;5072357;28;20051;-28
2022/11/13 07:41:21;;;;;;;46.17;28.75;;;5.10;99.90;;;;;;5073625;28;20135;-29
2022/11/13 07:43:46;;;;;;;44.83;29.42;;;5.10;99.90;;;;;;5073737;28;20470;-28
2022/11/13 07:46:12;;;;;;;44.83;28.83;;;5.20;99.90;;;;;;5073431;28;20052;-28
2022/11/13 07:48:38;;;;;;;40.55;27.67;;;5.10;99.90;;;;;;5073955;28;20076;-28
2022/11/13 07:51:03;;;;;;;43.10;26.92;;;5.20;99.90;;;;;;5073661;28;20455;-28
2022/11/13 07:53:29;;;;;;;39.13;26.67;;;5.20;99.90;;;;;;5072407;28;20074;-29
2022/11/13 07:55:58;;;;;;;38.25;26.13;;;5.30;99.90;;;;;;5073470;28;20037;-28
2022/11/13 07:58:24;;;;;;;38.28;26.08;;;5.20;99.90;;;;;;5072547;28;20044;-28
2022/11/13 08:00:49;;;;;;;36.85;25.30;;;5.20;99.90;;;;;;5073507;28;20044;-28
2022/11/13 08:03:16;;;;;;;36.33;24.45;;;5.70;99.90;;;;;;5073544;28;20053;-29
2022/11/13 08:05:42;;;;;;;36.15;25.38;;;5.40;99.90;;;;;;5073777;28;20060;-29
2022/11/13 08:08:11;;;;;;;33.20;24.70;;;5.40;99.90;;;;;;5072817;28;20077;-29
2022/11/13 08:10:37;;;;;;;37.83;24.92;;;5.50;99.90;;;;;;5073420;28;20041;-29
2022/11/13 08:13:06;;;;;;;37.17;26.67;;;5.50;99.90;;;;;;5073510;28;20093;-28
2022/11/13 08:15:33;;;;;;;33.42;24.98;;;5.70;99.90;;;;;;5073292;28;20059;-29
2022/11/13 08:18:00;;;;;;;36.92;24.85;;;5.90;99.90;;;;;;5073681;28;20183;-29
2022/11/13 08:20:30;;;;;;;31.42;22.40;;;5.70;99.90;;;;;;5073272;28;20051;-29
2022/11/13 08:23:00;;;;;;;33.15;22.67;;;5.80;99.90;;;;;;5073255;28;20080;-29
2022/11/13 08:25:26;;;;;;;30.08;22.73;;;6.10;99.90;;;;;;5073880;28;20046;-29
2022/11/13 08:27:53;;;;;;;28.40;21.58;;;6.10;99.90;;;;;;5073836;28;20049;-29
2022/11/13 08:30:20;;;;;;;30.67;22.55;;;6.30;99.90;;;;;;5073879;28;20544;-29
2022/11/13 08:32:49;;;;;;;33.83;20.85;;;6.40;99.90;;;;;;5073239;28;20036;-29
2022/11/13 08:35:15;;;;;;;25.73;19.30;;;6.30;99.90;;;;;;5073252;28;20246;-29
2022/11/13 08:37:41;;;;;;;30.77;20.05;;;6.40;99.90;;;;;;5073153;28;20059;-29
2022/11/13 08:40:07;;;;;;;21.75;18.63;;;6.50;99.90;;;;;;5073225;28;20041;-29
2022/11/13 08:42:33;;;;;;;22.05;18.15;;;6.80;99.90;;;;;;5073184;28;20490;-29
2022/11/13 08:44:59;;;;;;;22.85;17.58;;;6.90;99.90;;;;;;5073742;28;20055;-29
2022/11/13 08:47:27;;;;;;;24.15;18.20;;;6.90;99.90;;;;;;5073203;28;20052;-29
2022/11/13 08:49:56;;;;;;;23.35;18.15;;;7.20;99.90;;;;;;5073960;28;20044;-29
2022/11/13 08:52:22;;;;;;;21.80;16.38;;;7.30;99.90;;;;;;5075917;28;20067;-30
2022/11/13 08:54:47;;;;;;;21.52;15.95;;;7.50;99.90;;;;;;5076521;28;20040;-29
2022/11/13 08:57:13;;;;;;;17.15;13.93;;;7.60;99.90;;;;;;5077519;28;20127;-31
2022/11/13 08:59:39;;;;;;;18.85;15.13;;;7.70;99.90;;;;;;5075813;28;20493;-29
2022/11/13 09:02:05;;;;;;;19.10;14.95;;;7.90;99.90;;;;;;5076973;28;20043;-30
2022/11/13 09:04:30;;;;;;;20.77;14.00;;;7.90;99.90;;;;;;5075475;28;20044;-30
2022/11/13 09:06:56;;;;;;;17.00;13.50;;;8.10;99.90;;;;;;5076884;28;20378;-29
2022/11/13 09:09:22;;;;;;;17.33;12.88;;;8.30;99.90;;;;;;5075237;28;20044;-30
2022/11/13 09:11:48;;;;;;;16.17;12.80;;;8.40;99.90;;;;;;5076491;28;20147;-30
2022/11/13 09:14:14;;;;;;;19.08;13.38;;;8.30;99.90;;;;;;5076446;28;20044;-30
2022/11/13 09:16:40;;;;;;;16.88;13.50;;;8.60;99.90;;;;;;5074972;28;20040;-30
2022/11/13 09:19:06;;;;;;;16.42;13.27;;;8.60;99.90;;;;;;5076466;28;20110;-29
2022/11/13 09:21:32;;;;;;;16.05;12.45;;;8.80;99.90;;;;;;5076382;28;20106;-29
2022/11/13 09:23:57;;;;;;;16.05;12.10;;;8.80;99.90;;;;;;5076301;28;20135;-29
2022/11/13 09:26:23;;;;;;;12.32;10.82;;;9.00;99.90;;;;;;5076214;28;20037;-29
2022/11/13 09:28:49;;;;;;;13.30;10.45;;;9.10;99.90;;;;;;5076540;28;20122;-29
2022/11/13 09:31:15;;;;;;;15.80;11.35;;;9.20;99.90;;;;;;5075939;28;20147;-29
2022/11/13 09:33:41;;;;;;;14.15;11.07;;;9.30;99.90;;;;;;5076166;28;20045;-29
2022/11/13 09:36:13;;;;;;;14.40;11.07;;;9.30;99.90;;;;;;5075733;28;20077;-29
2022/11/13 09:38:40;;;;;;;14.32;11.18;;;9.60;99.90;;;;;;5076159;28;20049;-28
2022/11/13 09:41:16;;;;;;;12.23;10.10;;;9.60;99.90;;;;;;5076096;28;20040;-28
2022/11/13 09:43:58;;;;;;;14.02;10.15;;;9.80;99.90;;;;;;5076040;28;20048;-29
2022/11/13 09:46:43;;;;;;;13.30;10.18;;;9.80;99.90;;;;;;5077013;28;20044;-28
2022/11/13 09:49:16;;;;;;;13.77;9.65;;;9.90;99.90;;;;;;5076771;28;20049;-30
2022/11/13 09:51:55;;;;;;;;;;;9.90;99.90;;;;;;5076297;28;20101;-29
2022/11/13 09:54:22;;;;;;;11.00;8.95;;;9.90;99.90;;;;;;5075795;28;20085;-29
2022/11/13 09:57:15;;;;;;;11.07;9.35;;;10.10;99.90;;;;;;5075632;28;20052;-31
2022/11/13 09:59:50;;;;;;;11.23;9.02;;;10.10;99.90;;;;;;5075853;28;20052;-31
2022/11/13 10:02:26;;;;;;;10.68;8.70;;;10.20;99.90;;;;;;5074456;28;20582;-30
2022/11/13 10:05:03;;;;;;;12.57;9.07;;;10.20;99.90;;;;;;5075648;28;20529;-31
2022/11/13 10:07:56;;;;;;;10.95;9.13;;;10.20;99.90;;;;;;5076304;28;20084;-31
2022/11/13 10:11:10;;;;;;;11.95;8.07;;;10.30;99.90;;;;;;5075861;28;20084;-31
2022/11/13 10:14:18;;;;;;;10.25;7.82;;;10.40;99.90;;;;;;5073516;28;20138;-31
2022/11/13 10:16:54;;;;;;;9.02;7.82;;;10.60;99.90;;;;;;5073986;28;20113;-30
2022/11/13 10:19:33;;;;;;;9.63;8.23;;;10.70;99.90;;;;;;5075269;28;20173;-31
2022/11/13 10:22:15;;;;;;;10.38;8.15;;;10.90;99.90;;;;;;5075230;28;20135;-31
2022/11/13 10:24:43;;;;;;;11.45;9.20;;;11.00;99.90;;;;;;5075142;28;20498;-31
2022/11/13 10:27:10;;;;;;;9.65;8.40;;;11.20;99.90;;;;;;5075680;28;20041;-32
2022/11/13 10:29:37;;;;;;;9.93;7.68;;;11.30;99.90;;;;;;5075092;28;20135;-31
2022/11/13 10:32:17;;;;;;;13.38;8.40;;;;;;;;;;5074981;28;20060;-32
2022/11/13 10:34:47;;;;;;;9.25;7.43;;;11.40;99.90;;;;;;5075537;28;20084;-31
2022/11/13 10:37:42;;;;;;;9.65;7.78;;;11.50;99.90;;;;;;5074850;28;20044;-30
2022/11/13 10:40:07;;;;;;;10.60;8.60;;;11.50;99.90;;;;;;5075160;28;20048;-31
2022/11/13 10:42:39;;;;;;;11.30;8.23;;;11.60;99.90;;;;;;5074753;28;20444;-30
2022/11/13 10:45:16;;;;;;;9.25;7.20;;;11.60;99.90;;;;;;5073767;28;20101;-30
2022/11/13 10:47:48;;;;;;;11.30;7.97;;;11.70;99.90;;;;;;5074731;28;20048;-30
2022/11/13 10:50:28;;;;;;;10.73;8.00;;;11.70;99.90;;;;;;5074601;28;20059;-31
2022/11/13 10:52:55;;;;;;;9.38;8.35;;;11.70;99.90;;;;;;5073470;28;20044;-31
2022/11/13 10:55:21;;;;;;;10.23;8.10;;;11.70;99.90;;;;;;5074539;28;20052;-30
2022/11/13 10:58:01;;;;;;;11.27;7.88;;;11.80;99.90;;;;;;5074421;28;20053;-31
2022/11/13 11:00:33;;;;;;;9.63;7.82;;;11.90;99.90;;;;;;5074119;28;20367;-30
2022/11/13 11:02:59;;;;;;;10.65;7.97;;;12.00;99.90;;;;;;5075252;28;20044;-31
2022/11/13 11:05:26;;;;;;;8.68;7.68;;;12.10;99.90;;;;;;5074151;28;20498;-31
2022/11/13 11:07:56;;;;;;;10.77;8.52;;;12.10;99.90;;;;;;5074290;28;20056;-31
2022/11/13 11:10:34;;;;;;;9.73;7.40;;;12.20;99.90;;;;;;5074210;28;20053;-30
2022/11/13 11:13:08;;;;;;;11.25;8.20;;;12.20;99.90;;;;;;5074074;28;20050;-30
2022/11/13 11:15:46;;;;;;;9.98;7.53;;;12.20;99.90;;;;;;5074209;28;20470;-30
2022/11/13 11:18:12;;;;;;;10.25;7.85;;;12.10;99.90;;;;;;5072957;28;20456;-30
2022/11/13 11:20:55;;;;;;;9.70;8.23;;;12.10;99.90;;;;;;5072664;28;20056;-30
2022/11/13 11:23:29;;;;;;;9.75;7.40;;;12.10;99.90;;;;;;5072991;28;20053;-30
2022/11/13 11:26:00;;;;;;;10.68;8.30;;;12.20;99.90;;;;;;5074039;28;20045;-30
2022/11/13 11:28:31;;;;;;;11.05;7.78;;;12.10;99.90;;;;;;5073071;28;20494;-30
2022/11/13 11:31:09;;;;;;;9.77;7.50;;;12.10;99.90;;;;;;5073856;28;20374;-31
2022/11/13 11:34:01;;;;;;;12.48;7.68;;;12.00;99.90;;;;;;5073931;28;20048;-31
2022/11/13 11:36:37;;;;;;;10.18;8.18;;;12.00;99.90;;;;;;5073306;28;20055;-30
2022/11/13 11:39:14;;;;;;;11.20;7.80;;;11.90;99.90;;;;;;5073880;28;20088;-30
2022/11/13 11:42:04;;;;;;;9.38;7.80;;;11.80;99.90;;;;;;5073784;28;20056;-30
2022/11/13 11:44:32;;;;;;;10.55;8.52;;;11.80;99.90;;;;;;5072955;28;20098;-30
2022/11/13 11:46:58;;;;;;;9.55;7.85;;;11.80;99.90;;;;;;5073656;28;20060;-31
2022/11/13 11:49:25;;;;;;;11.90;8.40;;;11.90;99.90;;;;;;5074317;28;20056;-30
2022/11/13 11:52:21;;;;;;;9.70;7.50;;;11.90;99.90;;;;;;5073562;28;20102;-30
2022/11/13 11:55:11;;;;;;;9.35;7.78;;;12.10;99.90;;;;;;5074551;28;20185;-30
2022/11/13 11:57:52;;;;;;;9.32;7.60;;;12.20;99.90;;;;;;5073885;28;20471;-30
2022/11/13 12:00:19;;;;;;;9.90;7.35;;;12.30;99.90;;;;;;5073930;28;20428;-30
2022/11/13 12:03:06;;;;;;;14.27;7.60;;;12.40;99.90;;;;;;5074392;28;20360;-30
2022/11/13 12:05:50;;;;;;;8.73;7.65;;;12.60;99.90;;;;;;5072866;28;20048;-30
2022/11/13 12:08:37;;;;;;;9.18;6.97;;;12.80;99.90;;;;;;5073579;28;20045;-31
2022/11/13 12:11:21;;;;;;;9.60;7.32;;;13.00;99.90;;;;;;5073507;28;20056;-30
2022/11/13 12:14:03;;;;;;;9.85;7.38;;;13.30;99.90;;;;;;5073511;28;20051;-32
2022/11/13 12:16:49;;;;;;;8.63;7.05;;;13.90;99.90;;;;;;5073088;28;20390;-32
2022/11/13 12:19:37;;;;;;;7.97;7.13;;;14.70;99.90;;;;;;5071960;28;20403;-31
2022/11/13 12:22:27;;;;;;;9.57;7.22;;;15.10;99.90;;;;;;5072196;28;20055;-32
2022/11/13 12:25:22;;;;;;;12.27;8.02;;;14.90;99.90;;;;;;5074551;28;20048;-32
2022/11/13 12:27:57;;;;;;;9.30;7.50;;;14.70;99.90;;;;;;5077362;28;20546;-32
2022/11/13 12:30:33;;;;;;;10.23;7.13;;;14.70;99.90;;;;;;5076432;28;20098;-31
2022/11/13 12:33:15;;;;;;;8.98;7.05;;;14.50;99.90;;;;;;5077915;28;20052;-32
2022/11/13 12:35:45;;;;;;;7.93;6.18;;;14.50;99.90;;;;;;5077205;28;20580;-32
2022/11/13 12:38:37;;;;;;;7.57;6.63;;;14.50;99.90;;;;;;5077293;28;20041;-32
2022/11/13 12:41:39;;;;;;;9.53;6.30;;;14.50;99.90;;;;;;5077831;28;20044;-32
2022/11/13 12:44:22;;;;;;;6.57;5.68;;;14.90;99.90;;;;;;5077033;28;20052;-33
2022/11/13 12:46:48;;;;;;;8.88;5.63;;;15.40;99.90;;;;;;5076737;28;20193;-32
2022/11/13 12:49:26;;;;;;;8.30;6.28;;;15.50;99.90;;;;;;5077035;28;20045;-32
2022/11/13 12:52:14;;;;;;;7.97;6.18;;;15.80;1.00;;;;;;5077274;28;20055;-31